Terminal Aerodrome Forecast
Issued by NWS

Home | Current Version | Previous Version | Text Only | Print | Product List | Glossary On
Versions: 1 2 3 4 5 6 7 8 9 10 11 12 13 14 15 16 17 18 19 20 21 22 23 24 25 26 27 28 29 30 31 32 33 34 35 36 37 38
000
FTUS45 KPSR 261123
TAFIWA
TAF
KIWA 261123Z 2612/2712 16008KT P6SM -SHRA SCT025 BKN040 OVC100
     FM261600 26009KT P6SM VCSH SCT040 BKN100
     FM261800 29017G25KT P6SM VCSH SCT030 BKN060 BKN100
     FM270200 29012KT P6SM FEW080 SCT120
     FM270700 12006KT P6SM FEW150
      AMD LTD TO CLD VIS AND WIND TIL 261300=

USA.gov is the U.S. government's official web portal to all federal, state and local government web resources and services.